Time;durP1;ratioP1;P1;durP2;ratioP2;P2;SDS_P1;SDS_P2;PMS_P1;PMS_P2;Temp;Humidity;BMP_temperature;BMP_pressure;BME280_temperature;BME280_humidity;BME280_pressure;Samples;Min_cycle;Max_cycle;Signal;HPM_P1;HPM_P2
2022/04/04 00:02:08;;;;;;;7.72;2.78;;;;;;;-0.67;40.06;98539.00;4948368;29;21433;-84
2022/04/04 00:04:34;;;;;;;6.55;2.40;;;;;;;-0.65;40.08;98536.47;4948073;29;20050;-80
2022/04/04 00:07:02;;;;;;;5.57;2.33;;;;;;;-0.42;40.21;98587.09;4946919;28;20419;-83
2022/04/04 00:09:30;;;;;;;3.17;2.45;;;;;;;-0.80;40.12;98529.44;4935621;29;20063;-83
2022/04/04 00:11:56;;;;;;;5.45;2.67;;;;;;;-0.58;40.08;98568.97;4920675;29;20522;-80
2022/04/04 00:14:22;;;;;;;6.47;2.92;;;;;;;-0.45;40.48;98587.91;4946500;29;20071;-83
2022/04/04 00:16:48;;;;;;;6.43;2.85;;;;;;;-0.78;40.19;98531.16;4933491;29;20051;-81
2022/04/04 00:19:14;;;;;;;7.47;2.28;;;;;;;-0.64;40.07;98571.41;4936986;29;20039;-81
2022/04/04 00:21:42;;;;;;;14.18;2.60;;;;;;;-0.49;40.32;98607.47;4945408;29;20065;-80
2022/04/04 00:24:08;;;;;;;6.40;2.80;;;;;;;-0.89;40.50;98537.81;4953226;28;20214;-80
2022/04/04 00:26:34;;;;;;;7.47;3.25;;;;;;;-0.51;40.26;98604.00;4946146;28;20055;-83
2022/04/04 00:29:00;;;;;;;7.70;3.30;;;;;;;-1.04;40.30;98537.53;4931302;29;20047;-85
2022/04/04 00:31:27;;;;;;;6.97;2.78;;;;;;;-0.72;40.32;98578.09;4935020;29;20043;-80
2022/04/04 00:33:53;;;;;;;7.22;2.80;;;;;;;-0.86;40.52;98560.81;4957261;29;20043;-82
2022/04/04 00:36:19;;;;;;;4.60;2.30;;;;;;;-0.77;40.30;98583.09;4965180;29;20047;-81
2022/04/04 00:38:45;;;;;;;4.35;2.67;;;;;;;-0.89;40.45;98572.69;4953256;29;20042;-82
2022/04/04 00:41:13;;;;;;;4.35;2.33;;;;;;;-0.63;40.19;98617.44;4941361;29;20066;-81
2022/04/04 00:43:40;;;;;;;3.70;2.40;;;;;;;-0.68;40.30;98624.16;4928452;29;20099;-82
2022/04/04 00:46:07;;;;;;;3.92;2.72;;;;;;;-0.77;40.73;98603.53;4950165;29;20043;-80
2022/04/04 00:48:34;;;;;;;4.68;2.60;;;;;;;-0.95;40.54;98576.84;4955949;28;20039;-83
2022/04/04 00:51:01;;;;;;;5.22;2.80;;;;;;;-0.89;40.47;98590.56;4939552;29;20521;-83
2022/04/04 00:53:27;;;;;;;6.20;2.75;;;;;;;-0.95;40.37;98591.34;4932163;29;20047;-85
2022/04/04 00:55:54;;;;;;;5.50;2.70;;;;;;;-0.80;40.71;98618.84;4936073;29;20047;-86
2022/04/04 00:58:22;;;;;;;4.30;2.60;;;;;;;-0.86;41.00;98599.13;4919051;29;20450;-83
2022/04/04 01:00:48;;;;;;;5.45;2.75;;;;;;;-0.97;40.53;98596.41;4933478;29;20162;-84
2022/04/04 01:03:16;;;;;;;4.95;2.50;;;;;;;-1.17;41.32;98574.75;4958088;29;20046;-79
2022/04/04 01:05:44;;;;;;;5.60;2.80;;;;;;;-1.00;41.27;98603.16;4954191;29;20079;-82
2022/04/04 01:08:14;;;;;;;3.88;2.78;;;;;;;-1.14;40.69;98568.03;4917901;29;20391;-80
2022/04/04 01:10:41;;;;;;;4.97;2.60;;;;;;;-1.21;41.20;98561.91;4947261;28;20051;-82
2022/04/04 01:13:09;;;;;;;5.40;2.92;;;;;;;-1.27;40.80;98566.03;4932077;29;20043;-83
2022/04/04 01:15:35;;;;;;;5.13;3.13;;;;;;;-1.12;41.15;98599.56;4931824;29;20540;-84
2022/04/04 01:18:04;;;;;;;6.15;3.03;;;;;;;-0.94;41.19;98623.69;4932060;29;20051;-85
2022/04/04 01:20:30;;;;;;;5.88;3.22;;;;;;;-1.44;41.26;98547.88;4948954;29;20495;-80
2022/04/04 01:22:56;;;;;;;4.97;3.00;;;;;;;-1.17;40.86;98615.59;4935734;29;20047;-81
2022/04/04 01:25:28;;;;;;;6.05;2.90;;;;;;;-1.17;41.11;98633.47;4940253;29;20043;-82
2022/04/04 01:27:58;;;;;;;5.00;3.13;;;;;;;-1.31;41.06;98607.66;4959248;29;20047;-83
2022/04/04 01:30:25;;;;;;;5.88;3.10;;;;;;;-1.61;41.41;98573.91;4949883;29;20039;-82
2022/04/04 01:32:52;;;;;;;4.32;3.15;;;;;;;-1.26;41.08;98623.94;4952325;29;20040;-81
2022/04/04 01:35:21;;;;;;;5.28;2.90;;;;;;;-1.26;40.96;98642.69;4943667;29;20419;-82
2022/04/04 01:37:48;;;;;;;4.30;2.97;;;;;;;-1.27;40.74;98648.63;4945117;29;20051;-83
2022/04/04 01:40:15;;;;;;;4.63;3.10;;;;;;;-1.28;40.97;98654.56;4947440;29;20066;-83
2022/04/04 01:42:50;;;;;;;5.28;3.13;;;;;;;-1.68;41.30;98579.72;4934838;29;20047;-83
2022/04/04 01:45:16;;;;;;;;;;;;;;;-1.26;40.61;98659.66;4928622;29;20450;-84
2022/04/04 01:47:43;;;;;;;10.02;3.45;;;;;;;-1.42;40.77;98622.75;4945741;29;19929;-81
2022/04/04 01:50:09;;;;;;;6.13;3.20;;;;;;;-1.55;40.62;98599.56;4948249;29;20053;-83
2022/04/04 01:52:35;;;;;;;6.63;3.53;;;;;;;-1.54;40.90;98610.59;4928729;29;20396;-80
2022/04/04 01:55:01;;;;;;;5.72;2.90;;;;;;;-1.63;40.68;98616.38;4922260;29;20102;-84
2022/04/04 01:57:29;;;;;;;6.10;3.17;;;;;;;-1.69;41.17;98600.97;4932359;29;20182;-80
2022/04/04 01:59:56;;;;;;;6.90;3.60;;;;;;;-1.37;41.52;98649.25;4934420;29;20039;-79
2022/04/04 02:02:22;;;;;;;6.32;3.20;;;;;;;-1.42;41.05;98632.97;4947334;29;20481;-84
2022/04/04 02:04:48;;;;;;;5.75;3.38;;;;;;;-1.77;40.84;98584.63;4931206;29;20115;-82
2022/04/04 02:07:14;;;;;;;6.45;3.10;;;;;;;-1.65;41.10;98606.97;4948198;29;20079;-81
2022/04/04 02:09:40;;;;;;;6.03;3.35;;;;;;;-1.59;41.03;98614.78;4948987;28;20070;-85
2022/04/04 02:12:09;;;;;;;8.30;3.30;;;;;;;-1.54;40.94;98634.44;4945677;29;20049;-82
2022/04/04 02:14:35;;;;;;;6.68;3.60;;;;;;;-1.71;40.92;98590.72;4942618;29;20456;-85
2022/04/04 02:17:02;;;;;;;9.82;3.67;;;;;;;-1.44;41.19;98630.41;4931470;29;20409;-81
2022/04/04 02:19:28;;;;;;;7.32;4.18;;;;;;;-1.29;41.09;98660.47;4925579;29;20083;-81
2022/04/04 02:21:54;;;;;;;10.80;3.47;;;;;;;-1.56;41.40;98635.25;4943543;29;20043;-80
2022/04/04 02:24:20;;;;;;;6.28;3.47;;;;;;;-1.42;41.07;98653.38;4942613;29;20070;-82
2022/04/04 02:26:46;;;;;;;7.45;4.28;;;;;;;-1.62;41.29;98610.44;4943846;29;20440;-82
2022/04/04 02:29:13;;;;;;;4.95;3.30;;;;;;;-1.35;41.47;98659.50;4929326;29;20079;-82
2022/04/04 02:31:38;;;;;;;7.45;3.58;;;;;;;-1.44;41.27;98632.09;4933718;29;20047;-82
2022/04/04 02:34:05;;;;;;;7.95;3.70;;;;;;;-1.31;41.50;98648.50;4933461;29;20046;-83
2022/04/04 02:36:31;;;;;;;8.52;3.47;;;;;;;-1.04;41.69;98690.75;4926523;29;20188;-82
2022/04/04 02:38:57;;;;;;;8.45;3.90;;;;;;;-1.47;41.50;98619.28;4949161;29;20134;-80
2022/04/04 02:41:23;;;;;;;5.68;3.47;;;;;;;-1.04;41.59;98691.63;4953598;29;20035;-81
2022/04/04 02:43:50;;;;;;;8.18;4.53;;;;;;;-1.01;41.75;98688.25;4949869;28;20079;-81
2022/04/04 02:46:17;;;;;;;5.10;3.63;;;;;;;-1.56;41.28;98600.38;4948830;29;20050;-83
2022/04/04 02:48:43;;;;;;;6.93;4.13;;;;;;;-1.28;41.48;98657.09;4947664;29;20647;-87
2022/04/04 02:51:09;;;;;;;7.05;4.10;;;;;;;-0.99;41.72;98696.81;4950955;29;20184;-79
2022/04/04 02:53:35;;;;;;;10.73;5.00;;;;;;;-1.00;42.02;98707.84;4937766;29;20054;-79
2022/04/04 02:58:45;;;;;;;7.82;3.85;;;;;;;-0.92;41.91;98704.63;4945168;29;20058;-79
2022/04/04 03:01:11;;;;;;;7.55;3.70;;;;;;;-0.97;41.40;98706.22;4933271;29;20051;-79
2022/04/04 03:03:38;;;;;;;5.95;3.88;;;;;;;-0.98;41.37;98707.03;4947786;29;20499;-80
2022/04/04 03:06:04;;;;;;;8.13;4.22;;;;;;;-0.98;41.68;98706.19;4940799;29;20079;-81
2022/04/04 03:08:30;;;;;;;11.55;4.32;;;;;;;-0.88;41.60;98717.47;4960156;29;20051;-80
2022/04/04 03:10:56;;;;;;;7.13;3.85;;;;;;;-1.13;41.82;98681.22;4952276;29;20422;-82
2022/04/04 03:13:22;;;;;;;6.45;3.88;;;;;;;-0.88;41.61;98725.97;4948077;29;20047;-79
2022/04/04 03:15:51;;;;;;;7.90;4.20;;;;;;;-0.96;41.50;98722.41;4916149;29;20043;-83
2022/04/04 03:18:18;;;;;;;10.18;4.28;;;;;;;-1.00;42.25;98716.41;4931052;29;20040;-80
2022/04/04 03:20:44;;;;;;;6.50;4.40;;;;;;;-0.94;42.14;98715.66;4946091;29;20050;-85
2022/04/04 03:23:10;;;;;;;8.80;5.03;;;;;;;-0.95;42.51;98711.38;4915424;29;20047;-83
2022/04/04 03:25:36;;;;;;;7.38;3.83;;;;;;;-0.76;42.17;98720.25;4947140;29;20066;-79
2022/04/04 03:28:02;;;;;;;10.23;4.85;;;;;;;-0.87;42.33;98691.09;4933768;29;20663;-81
2022/04/04 03:30:29;;;;;;;8.25;4.40;;;;;;;-0.70;42.00;98719.53;4924654;29;20075;-83
2022/04/04 03:32:57;;;;;;;12.05;4.13;;;;;;;-0.55;41.75;98729.19;4936167;29;20051;-80
2022/04/04 03:35:25;;;;;;;10.18;3.78;;;;;;;-0.88;41.79;98674.88;4933183;29;20066;-83
2022/04/04 03:37:53;;;;;;;8.77;3.92;;;;;;;-0.44;41.46;98717.44;4942758;29;20062;-79
2022/04/04 03:40:20;;;;;;;9.32;5.88;;;;;;;-0.59;41.73;98683.94;4928936;28;20043;-83
2022/04/04 03:42:49;;;;;;;8.02;4.35;;;;;;;-0.35;40.98;98730.41;4945351;29;20069;-80
2022/04/04 03:45:15;;;;;;;9.30;5.00;;;;;;;-0.37;41.15;98720.97;4915394;29;20043;-81
2022/04/04 03:47:43;;;;;;;10.82;4.60;;;;;;;-0.21;41.07;98733.19;4942119;29;20550;-79
2022/04/04 03:50:12;;;;;;;11.13;4.20;;;;;;;-0.20;41.26;98726.38;4921239;29;20051;-78
2022/04/04 03:52:40;;;;;;;9.48;4.20;;;;;;;-0.22;41.38;98726.34;4957036;29;20101;-80
2022/04/04 03:55:08;;;;;;;10.57;4.13;;;;;;;-0.07;41.30;98735.97;4964388;28;20111;-78
2022/04/04 03:57:34;;;;;;;9.15;4.35;;;;;;;-0.05;40.50;98741.97;4925636;29;20035;-78
2022/04/04 04:00:00;;;;;;;7.40;4.00;;;;;;;-0.07;41.35;98735.13;4933041;29;20051;-80
2022/04/04 04:02:26;;;;;;;8.40;3.90;;;;;;;0.17;40.87;98737.22;4945698;29;20042;-76
2022/04/04 04:04:52;;;;;;;8.02;4.40;;;;;;;0.32;40.66;98731.47;4942118;29;20051;-79
2022/04/04 04:07:24;;;;;;;7.03;3.47;;;;;;;0.51;40.21;98754.78;4943841;29;20047;-77
2022/04/04 04:09:52;;;;;;;6.75;3.55;;;;;;;0.58;40.56;98747.22;4945497;29;20113;-78
2022/04/04 04:12:20;;;;;;;13.07;3.95;;;;;;;0.80;40.67;98749.25;4946190;29;20139;-78
2022/04/04 04:14:51;;;;;;;8.02;4.07;;;;;;;1.03;41.13;98746.97;4945180;29;20043;-79
2022/04/04 04:17:22;;;;;;;10.50;3.78;;;;;;;1.17;40.78;98759.97;4946036;29;20375;-78
2022/04/04 04:22:34;;;;;;;7.65;3.80;;;;;;;1.49;40.34;98749.22;4930761;29;20046;-78
2022/04/04 04:25:01;;;;;;;7.95;4.40;;;;;;;1.62;39.79;98739.97;4931951;29;20059;-78
2022/04/04 04:27:28;;;;;;;6.72;4.35;;;;;;;1.81;39.00;98743.56;4942922;29;20551;-80
2022/04/04 04:29:54;;;;;;;10.63;4.82;;;;;;;1.87;39.92;98719.69;4939118;29;20027;-77
2022/04/04 04:32:21;;;;;;;9.23;5.20;;;;;;;2.31;39.67;98746.56;4954839;29;20040;-78
2022/04/04 04:34:50;;;;;;;8.95;4.47;;;;;;;2.60;39.14;98751.91;4898386;29;20047;-76
2022/04/04 04:37:23;;;;;;;8.18;4.03;;;;;;;2.86;38.77;98753.75;4943940;29;20495;-77
2022/04/04 04:39:50;;;;;;;10.27;4.22;;;;;;;3.04;38.08;98747.00;4943532;29;21095;-79
2022/04/04 04:42:16;;;;;;;10.10;4.65;;;;;;;3.35;38.05;98747.13;4929976;29;20388;-78
2022/04/04 04:44:43;;;;;;;10.75;4.63;;;;;;;3.79;38.06;98748.97;4938226;28;20078;-77
2022/04/04 04:47:10;;;;;;;8.05;4.88;;;;;;;4.03;37.73;98747.28;4930775;29;20138;-80
2022/04/04 04:49:36;;;;;;;10.05;4.45;;;;;;;4.35;36.88;98743.84;4930907;29;20039;-78
2022/04/04 04:52:02;;;;;;;9.13;4.53;;;;;;;4.76;36.37;98755.81;4943124;28;20091;-78
2022/04/04 04:54:30;;;;;;;8.23;4.22;;;;;;;5.09;35.91;98758.31;4929611;29;20152;-78
2022/04/04 04:56:57;;;;;;;8.90;4.18;;;;;;;5.24;35.69;98734.19;4930434;29;20043;-79
2022/04/04 04:59:23;;;;;;;9.43;4.05;;;;;;;5.54;35.64;98743.50;4948231;29;20055;-80
2022/04/04 05:01:50;;;;;;;8.95;4.25;;;;;;;5.90;34.76;98743.28;4925882;29;20041;-78
2022/04/04 05:04:16;;;;;;;9.95;4.20;;;;;;;6.16;34.80;98747.44;4949973;28;20035;-81
2022/04/04 05:06:42;;;;;;;6.05;4.03;;;;;;;6.68;33.33;98746.13;4933627;29;20050;-78
2022/04/04 05:09:08;;;;;;;7.78;3.97;;;;;;;7.09;33.36;98738.78;4930562;29;20047;-80
2022/04/04 05:11:36;;;;;;;8.20;4.03;;;;;;;7.34;33.09;98751.44;4941572;28;20059;-81
2022/04/04 05:14:02;;;;;;;7.60;4.18;;;;;;;7.43;32.53;98742.69;4929991;29;20092;-79
2022/04/04 05:16:28;;;;;;;6.05;4.82;;;;;;;7.53;32.55;98750.31;4944471;29;20046;-79
2022/04/04 05:18:56;;;;;;;8.00;4.35;;;;;;;7.67;32.25;98738.91;4921460;29;20160;-78
2022/04/04 05:21:22;;;;;;;8.68;4.68;;;;;;;7.85;31.84;98750.75;4945044;29;20515;-79
2022/04/04 05:23:48;;;;;;;19.00;4.78;;;;;;;7.89;31.08;98736.00;4941877;29;20094;-78
2022/04/04 05:26:14;;;;;;;7.93;4.63;;;;;;;8.12;30.91;98727.91;4946032;29;20035;-81
2022/04/04 05:28:40;;;;;;;7.90;5.05;;;;;;;8.80;30.74;98751.84;4943546;29;20070;-79
2022/04/04 05:31:06;;;;;;;6.97;4.45;;;;;;;9.77;30.25;98741.25;4930247;29;20141;-78
2022/04/04 05:33:32;;;;;;;6.07;4.60;;;;;;;10.79;29.27;98743.97;4941701;29;20043;-80
2022/04/04 05:35:58;;;;;;;7.18;4.32;;;;;;;11.82;28.54;98743.66;4942071;29;20051;-79
2022/04/04 05:38:25;;;;;;;6.72;3.75;;;;;;;12.65;27.66;98720.16;4930052;29;20039;-77
2022/04/04 05:40:51;;;;;;;8.73;4.80;;;;;;;13.73;26.70;98735.44;4942271;29;20055;-78
2022/04/04 05:43:18;;;;;;;6.88;4.63;;;;;;;14.91;26.02;98725.41;4944684;29;20042;-77
2022/04/04 05:45:44;;;;;;;6.82;4.47;;;;;;;16.35;24.78;98737.13;4949229;29;20058;-79
2022/04/04 05:48:10;;;;;;;8.27;4.50;;;;;;;17.57;23.92;98747.53;4943777;29;20043;-80
2022/04/04 05:50:36;;;;;;;10.55;5.68;;;;;;;18.48;22.85;98737.22;4923480;29;20045;-80
2022/04/04 05:53:02;;;;;;;7.13;4.95;;;;;;;18.97;22.40;98740.53;4933799;29;20134;-81
2022/04/04 05:55:29;;;;;;;6.28;4.70;;;;;;;19.37;21.52;98731.94;4925132;29;20178;-79
2022/04/04 05:57:56;;;;;;;5.40;4.57;;;;;;;19.80;21.39;98731.88;4948569;29;20162;-78
2022/04/04 06:00:22;;;;;;;7.07;4.80;;;;;;;19.93;20.56;98710.84;4948170;29;20078;-80
2022/04/04 06:02:48;;;;;;;8.70;4.57;;;;;;;20.43;20.46;98723.47;4930809;29;20051;-79
2022/04/04 06:05:14;;;;;;;7.53;4.68;;;;;;;20.71;19.65;98725.09;4933446;29;20610;-80
2022/04/04 06:07:41;;;;;;;6.72;4.65;;;;;;;20.74;19.78;98729.34;4948486;29;20093;-80
2022/04/04 06:10:15;;;;;;;9.98;5.75;;;;;;;20.81;19.58;98721.84;4949222;29;20519;-78
2022/04/04 06:12:43;;;;;;;11.13;5.10;;;;;;;21.27;19.20;98723.94;4955132;29;20051;-80
2022/04/04 06:15:15;;;;;;;7.35;5.68;;;;;;;22.22;19.10;98725.16;4958331;28;21136;-81
2022/04/04 06:17:49;;;;;;;6.13;5.00;;;;;;;23.10;18.29;98730.91;4951593;29;20105;-80
2022/04/04 06:20:16;;;;;;;8.45;5.43;;;;;;;23.60;17.67;98733.22;4946769;29;20071;-79
2022/04/04 06:22:50;;;;;;;6.82;5.10;;;;;;;23.86;17.31;98731.09;4948379;29;20181;-78
2022/04/04 06:25:21;;;;;;;5.78;4.57;;;;;;;23.88;17.10;98731.81;4913906;29;20039;-78
2022/04/04 06:27:50;;;;;;;7.60;5.30;;;;;;;23.91;16.71;98728.94;4948854;29;20039;-79
2022/04/04 06:30:16;;;;;;;5.25;4.75;;;;;;;24.08;16.36;98725.91;4934479;29;20506;-79
2022/04/04 06:32:45;;;;;;;6.72;4.38;;;;;;;24.59;16.34;98729.66;4933282;29;20086;-78
2022/04/04 06:35:16;;;;;;;6.88;4.60;;;;;;;25.42;16.01;98713.72;4942239;29;20050;-80
2022/04/04 06:37:46;;;;;;;9.43;7.97;;;;;;;26.21;15.03;98673.91;4955346;29;20516;-80
2022/04/04 06:40:14;;;;;;;9.02;5.63;;;;;;;26.94;14.79;98721.41;4934948;29;20127;-78
2022/04/04 06:42:45;;;;;;;7.10;4.50;;;;;;;26.92;14.61;98694.84;4959455;29;20035;-78
2022/04/04 06:45:15;;;;;;;6.03;4.80;;;;;;;27.11;14.05;98724.28;4920755;29;20470;-79
2022/04/04 06:47:42;;;;;;;8.02;5.65;;;;;;;27.10;14.49;98710.09;4926650;29;21253;-79
2022/04/04 06:50:13;;;;;;;7.78;6.63;;;;;;;27.14;14.25;98713.31;4947648;29;20050;-81
2022/04/04 06:52:45;;;;;;;7.68;6.68;;;;;;;27.00;14.01;98712.81;4947875;29;20053;-80
2022/04/04 06:55:12;;;;;;;6.40;4.28;;;;;;;27.09;14.25;98705.75;4932159;29;20090;-80
2022/04/04 06:57:43;;;;;;;5.43;4.93;;;;;;;27.15;13.70;98707.00;4918511;29;20035;-81
2022/04/04 07:00:12;;;;;;;5.60;4.68;;;;;;;26.59;13.37;98665.00;4936077;29;20157;-79
2022/04/04 07:02:38;;;;;;;5.50;4.18;;;;;;;27.06;12.90;98720.22;4917948;29;20523;-79
2022/04/04 07:05:05;;;;;;;7.93;4.95;;;;;;;26.72;12.68;98712.72;4932913;29;20418;-79
2022/04/04 07:07:32;;;;;;;7.65;4.97;;;;;;;25.91;13.11;98689.03;4917127;29;20462;-78
2022/04/04 07:10:03;;;;;;;5.65;3.30;;;;;;;26.09;13.09;98698.00;4933369;29;20128;-80
2022/04/04 07:12:34;;;;;;;6.57;4.03;;;;;;;26.61;12.70;98703.03;4927596;29;20095;-80
2022/04/04 07:15:04;;;;;;;5.47;3.97;;;;;;;26.81;12.61;98723.53;4932511;29;20561;-81
2022/04/04 07:17:33;;;;;;;6.15;3.20;;;;;;;27.53;12.55;98721.16;4933539;29;20102;-83
2022/04/04 07:19:59;;;;;;;3.88;3.20;;;;;;;27.93;11.68;98721.78;4917403;29;20399;-80
2022/04/04 07:22:25;;;;;;;3.95;3.25;;;;;;;28.72;11.45;98703.22;4949426;29;20035;-79
2022/04/04 07:24:51;;;;;;;3.47;3.10;;;;;;;29.13;10.96;98694.63;4963023;29;20059;-80
2022/04/04 07:27:17;;;;;;;3.03;2.72;;;;;;;29.74;11.20;98694.53;4939445;29;20123;-79
2022/04/04 07:29:46;;;;;;;4.47;2.83;;;;;;;30.32;10.67;98703.50;4940739;28;20138;-80
2022/04/04 07:32:21;;;;;;;3.40;2.90;;;;;;;30.51;10.63;98675.47;4944941;29;20076;-82
2022/04/04 07:34:47;;;;;;;2.87;2.50;;;;;;;30.44;10.21;98705.84;4932669;29;20090;-80
2022/04/04 07:37:20;;;;;;;2.75;2.55;;;;;;;30.38;10.24;98709.19;4930161;29;20038;-80
2022/04/04 07:39:52;;;;;;;3.35;2.80;;;;;;;31.07;10.25;98671.16;4945064;29;20141;-82
2022/04/04 07:42:20;;;;;;;3.00;2.70;;;;;;;32.04;10.02;98699.59;4932087;29;20554;-80
2022/04/04 07:44:49;;;;;;;3.45;2.63;;;;;;;31.99;9.44;98680.47;4933760;29;20047;-82
2022/04/04 07:47:18;;;;;;;4.45;2.65;;;;;;;32.14;9.57;98707.44;4945220;29;20043;-80
2022/04/04 07:49:43;;;;;;;3.35;2.60;;;;;;;32.05;9.12;98711.19;4915031;29;20078;-79
2022/04/04 07:52:10;;;;;;;2.70;2.50;;;;;;;31.74;9.58;98704.00;4948163;29;20085;-80
2022/04/04 07:54:44;;;;;;;2.83;2.53;;;;;;;32.60;9.39;98704.72;4953858;29;20047;-80
2022/04/04 07:57:17;;;;;;;3.15;2.85;;;;;;;32.97;8.32;98702.19;4923220;29;20054;-78
2022/04/04 07:59:47;;;;;;;2.78;2.30;;;;;;;33.51;8.76;98681.31;4922965;29;20051;-81
2022/04/04 08:02:13;;;;;;;3.00;2.70;;;;;;;33.68;8.03;98690.03;4938850;29;20043;-81
2022/04/04 08:04:42;;;;;;;2.70;2.50;;;;;;;34.57;8.17;98692.53;4936441;29;20043;-79
2022/04/04 08:07:08;;;;;;;2.60;2.40;;;;;;;35.25;7.57;98689.22;4943367;29;20036;-78
2022/04/04 08:09:38;;;;;;;3.00;2.13;;;;;;;35.87;7.83;98686.50;4929161;29;20134;-80
2022/04/04 08:12:04;;;;;;;;;;;;;;;35.80;7.46;98696.50;4951765;29;20039;-79
2022/04/04 08:14:37;;;;;;;2.45;2.22;;;;;;;35.43;8.06;98684.09;4962643;29;20370;-80
2022/04/04 08:17:30;;;;;;;2.85;2.53;;;;;;;35.26;7.83;98680.06;4928719;29;20679;-77
2022/04/04 08:20:00;;;;;;;2.90;2.63;;;;;;;35.83;7.70;98642.81;4951898;29;20067;-81
2022/04/04 08:22:29;;;;;;;3.05;2.70;;;;;;;36.45;6.84;98669.75;4961251;29;20114;-78
2022/04/04 08:24:55;;;;;;;2.80;2.20;;;;;;;35.89;6.94;98692.56;4941493;29;20038;-79
2022/04/04 08:27:36;;;;;;;2.80;2.22;;;;;;;35.34;7.07;98655.56;4954976;28;20040;-81
2022/04/04 08:30:17;;;;;;;3.08;1.88;;;;;;;35.10;7.10;98638.84;4956489;29;21696;-81
2022/04/04 08:32:44;;;;;;;2.08;1.92;;;;;;;35.41;7.08;98661.84;4938571;29;20570;-81
2022/04/04 08:35:13;;;;;;;2.10;1.90;;;;;;;35.54;6.52;98668.34;4948390;29;20089;-82
2022/04/04 08:37:41;;;;;;;2.00;1.83;;;;;;;35.76;6.51;98689.84;4929627;28;20131;-79
2022/04/04 08:40:11;;;;;;;2.42;1.95;;;;;;;35.86;6.38;98649.72;4946869;29;20059;-81
2022/04/04 08:42:38;;;;;;;2.47;1.90;;;;;;;36.53;6.07;98665.97;4931917;29;20039;-79
2022/04/04 08:45:05;;;;;;;3.00;1.95;;;;;;;36.85;6.43;98681.56;4944943;29;20051;-78
2022/04/04 08:47:33;;;;;;;1.73;1.52;;;;;;;37.36;6.69;98682.66;4944290;29;20051;-80
2022/04/04 08:50:01;;;;;;;5.03;1.90;;;;;;;37.68;5.78;98674.59;4932933;29;20047;-79
2022/04/04 08:52:29;;;;;;;2.80;1.80;;;;;;;38.03;5.83;98679.63;4934235;29;20584;-81
2022/04/04 08:54:55;;;;;;;2.00;1.80;;;;;;;38.64;5.73;98673.66;4945231;29;20043;-80
2022/04/04 08:57:22;;;;;;;3.58;2.38;;;;;;;38.69;5.75;98676.56;4946516;29;20036;-81
2022/04/04 08:59:48;;;;;;;2.35;2.10;;;;;;;38.67;5.46;98675.94;4931333;29;20066;-79
2022/04/04 09:02:15;;;;;;;3.85;2.42;;;;;;;38.90;5.57;98675.31;4928658;29;20044;-80
2022/04/04 09:04:41;;;;;;;2.58;2.38;;;;;;;39.25;5.40;98665.72;4943292;29;20126;-81
2022/04/04 09:07:12;;;;;;;2.35;2.15;;;;;;;39.56;5.29;98677.44;4946698;29;20121;-80
2022/04/04 09:09:39;;;;;;;2.85;1.92;;;;;;;38.66;5.63;98661.53;4930521;29;20085;-80
2022/04/04 09:12:07;;;;;;;2.97;2.55;;;;;;;38.62;5.46;98663.03;4937190;28;20054;-79
2022/04/04 09:14:58;;;;;;;3.55;2.30;;;;;;;38.65;5.26;98665.31;4938697;29;20082;-78
2022/04/04 09:17:33;;;;;;;4.05;2.70;;;;;;;39.19;5.26;98666.63;4930230;29;20515;-81
2022/04/04 09:20:08;;;;;;;3.63;2.30;;;;;;;39.19;5.13;98667.44;4938762;29;20139;-80
2022/04/04 09:22:34;;;;;;;2.47;2.28;;;;;;;38.77;5.17;98669.97;4930597;29;20047;-79
2022/04/04 09:25:02;;;;;;;4.65;2.50;;;;;;;38.26;4.98;98660.00;4923745;29;20102;-82
2022/04/04 09:27:34;;;;;;;2.92;2.50;;;;;;;38.27;5.24;98666.28;4941845;29;20047;-79
2022/04/04 09:30:03;;;;;;;5.05;4.60;;;;;;;37.70;4.85;98653.50;4930972;29;20137;-80
2022/04/04 09:32:39;;;;;;;2.42;2.22;;;;;;;37.40;5.29;98634.25;4932363;29;20050;-81
2022/04/04 09:35:18;;;;;;;2.88;2.25;;;;;;;36.17;5.41;98672.63;4948008;29;20414;-81
2022/04/04 09:37:46;;;;;;;3.00;2.70;;;;;;;35.73;5.57;98678.38;4945938;29;20497;-84
2022/04/04 09:40:16;;;;;;;3.83;2.90;;;;;;;35.38;5.96;98664.97;4948520;28;20051;-82
2022/04/04 09:42:51;;;;;;;3.70;2.80;;;;;;;34.99;6.10;98669.13;4935827;29;20043;-81
2022/04/04 09:45:19;;;;;;;3.50;3.03;;;;;;;34.34;6.09;98651.22;4918180;29;20043;-82
2022/04/04 09:47:54;;;;;;;5.18;3.30;;;;;;;34.38;6.02;98678.66;4952340;29;20051;-82
2022/04/04 09:50:39;;;;;;;3.72;3.10;;;;;;;34.15;5.78;98674.31;4954774;29;20043;-83
2022/04/04 09:53:07;;;;;;;4.47;3.67;;;;;;;34.21;6.17;98675.38;4935963;29;20047;-81
2022/04/04 09:55:36;;;;;;;5.30;3.10;;;;;;;33.93;6.14;98660.00;4941602;29;20098;-81
2022/04/04 09:58:06;;;;;;;4.38;3.40;;;;;;;33.48;6.48;98662.81;4922594;29;20027;-82
2022/04/04 10:00:35;;;;;;;3.53;3.22;;;;;;;33.35;6.51;98650.00;4949776;29;20051;-81
2022/04/04 10:03:02;;;;;;;3.80;3.20;;;;;;;33.48;6.59;98665.53;4932029;29;20122;-81
2022/04/04 10:05:29;;;;;;;3.95;3.33;;;;;;;33.48;6.76;98660.13;4947129;29;20039;-80
2022/04/04 10:07:56;;;;;;;6.18;3.20;;;;;;;33.30;6.41;98650.56;4948875;29;20046;-80
2022/04/04 10:10:29;;;;;;;5.50;3.25;;;;;;;33.89;6.64;98669.47;4934564;29;20063;-81
2022/04/04 10:12:57;;;;;;;6.00;3.03;;;;;;;34.02;6.48;98650.75;4949029;29;20055;-79
2022/04/04 10:15:25;;;;;;;3.63;3.13;;;;;;;34.61;6.70;98672.19;4933700;29;20415;-81
2022/04/04 10:17:52;;;;;;;3.50;2.88;;;;;;;34.56;6.48;98667.41;4949174;29;20102;-78
2022/04/04 10:20:20;;;;;;;3.78;3.03;;;;;;;33.63;6.99;98666.34;4934481;29;20377;-81
2022/04/04 10:22:51;;;;;;;6.25;3.17;;;;;;;32.81;6.99;98670.84;4948612;29;20043;-79
2022/04/04 10:25:19;;;;;;;4.82;3.00;;;;;;;32.52;6.71;98669.78;4950137;29;20078;-79
2022/04/04 10:27:47;;;;;;;3.78;3.00;;;;;;;32.36;7.06;98676.16;4949700;29;20070;-80
2022/04/04 10:30:16;;;;;;;3.00;2.70;;;;;;;31.68;7.63;98684.00;4917677;29;20597;-81
2022/04/04 10:32:52;;;;;;;3.00;2.70;;;;;;;30.68;7.75;98667.41;4935243;29;20069;-81
2022/04/04 10:35:22;;;;;;;4.43;2.70;;;;;;;29.68;7.69;98671.88;4932778;29;20133;-82
2022/04/04 10:37:48;;;;;;;4.10;2.80;;;;;;;28.90;8.05;98644.34;4947147;29;20031;-81
2022/04/04 10:40:26;;;;;;;5.15;2.65;;;;;;;27.79;8.56;98624.25;4934899;29;20038;-82
2022/04/04 10:43:10;;;;;;;5.13;2.70;;;;;;;27.63;8.85;98683.72;4935216;29;20504;-81
2022/04/04 10:46:00;;;;;;;4.60;3.08;;;;;;;26.72;9.04;98675.38;4947371;29;20082;-81
2022/04/04 10:48:37;;;;;;;3.72;2.78;;;;;;;25.34;9.40;98666.47;4949272;29;20045;-83
2022/04/04 10:51:18;;;;;;;3.00;2.70;;;;;;;23.96;10.06;98678.06;4949383;28;20047;-82
2022/04/04 10:53:53;;;;;;;5.68;2.65;;;;;;;22.89;10.78;98683.88;4949588;29;20609;-83
2022/04/04 10:56:31;;;;;;;2.88;2.55;;;;;;;22.08;10.90;98668.72;4927699;29;20113;-81
2022/04/04 10:59:16;;;;;;;2.47;2.15;;;;;;;21.51;11.60;98683.47;4952597;29;20034;-79
2022/04/04 11:01:48;;;;;;;2.28;1.70;;;;;;;20.66;12.33;98679.63;4957259;29;20043;-84
2022/04/04 11:04:27;;;;;;;;;;;;;;;19.72;12.61;98681.41;4947493;29;20035;-81
2022/04/04 11:10:06;;;;;;;2.58;1.73;;;;;;;18.32;13.27;98692.50;4917630;29;20074;-80
2022/04/04 11:12:54;;;;;;;2.72;2.05;;;;;;;17.72;13.75;98693.25;4950587;29;20039;-80
2022/04/04 11:15:51;;;;;;;2.63;2.00;;;;;;;17.20;14.29;98674.16;4954418;29;20074;-83
2022/04/04 11:18:36;;;;;;;2.90;2.10;;;;;;;16.61;14.40;98647.47;4949646;29;20630;-86
2022/04/04 11:21:18;;;;;;;3.10;2.10;;;;;;;15.91;14.97;98636.06;4944450;28;20039;-86
2022/04/04 11:23:51;;;;;;;2.30;2.00;;;;;;;15.29;15.10;98607.56;4936906;29;20046;-85
2022/04/04 11:26:18;;;;;;;2.42;2.17;;;;;;;15.52;15.61;98687.69;4930824;29;20674;-81
2022/04/04 11:28:46;;;;;;;3.38;2.05;;;;;;;15.09;15.96;98663.47;4947981;29;20046;-83
2022/04/04 11:31:32;;;;;;;2.63;2.20;;;;;;;15.17;16.38;98705.91;4932567;29;20738;-79
2022/04/04 11:33:58;;;;;;;2.20;2.00;;;;;;;14.83;16.52;98709.19;4938556;29;20043;-82
2022/04/04 11:37:03;;;;;;;;;;;;;;;;;;;;;
2022/04/04 11:40:06;;;;;;;5.18;2.45;;;;;;;13.76;16.35;98607.22;4941155;29;20083;-83
2022/04/04 11:42:49;;;;;;;2.80;1.73;;;;;;;13.81;16.84;98708.97;4950868;29;20051;-80
2022/04/04 11:45:22;;;;;;;3.08;2.05;;;;;;;12.75;17.34;98591.91;4935259;29;20043;-81
2022/04/04 11:48:01;;;;;;;2.63;2.00;;;;;;;12.89;17.67;98654.94;4951281;29;20047;-82
2022/04/04 11:50:30;;;;;;;2.55;2.00;;;;;;;12.35;17.80;98618.53;4958942;29;20620;-81
2022/04/04 11:53:03;;;;;;;3.15;2.10;;;;;;;12.53;18.08;98715.34;4946897;29;20059;-81
2022/04/04 11:55:45;;;;;;;3.08;2.00;;;;;;;12.19;18.35;98700.81;4951033;29;20078;-82
2022/04/04 11:58:37;;;;;;;4.28;2.10;;;;;;;12.15;18.35;98710.50;4930678;29;20055;-82